createdAt,value
2022-10-06T00:00:48.818Z,9.47
2022-10-06T00:03:16.189Z,11.37
2022-10-06T00:05:43.145Z,9.70
2022-10-06T00:08:10.528Z,9.73
2022-10-06T00:10:37.176Z,8.37
2022-10-06T00:13:04.422Z,8.43
2022-10-06T00:15:32.209Z,11.30
2022-10-06T00:17:59.647Z,5.83
2022-10-06T00:20:27.160Z,7.13
2022-10-06T00:22:54.324Z,11.33
2022-10-06T00:25:23.118Z,10.37
2022-10-06T00:27:51.830Z,10.70
2022-10-06T00:30:21.822Z,12.10
2022-10-06T00:32:52.996Z,16.50
2022-10-06T00:35:20.255Z,8.93
2022-10-06T00:37:47.023Z,9.40
2022-10-06T00:40:13.751Z,12.37
2022-10-06T00:42:52.776Z,6.37
2022-10-06T00:45:24.373Z,6.40
2022-10-06T00:47:51.251Z,9.80
2022-10-06T00:50:18.806Z,18.77
2022-10-06T00:52:45.542Z,13.30
2022-10-06T00:55:12.299Z,8.43
2022-10-06T00:57:40.717Z,20.23
2022-10-06T01:00:08.921Z,9.73
2022-10-06T01:02:42.151Z,7.00
2022-10-06T01:05:13.022Z,10.57
2022-10-06T01:07:39.611Z,17.23
2022-10-06T01:10:06.522Z,14.20
2022-10-06T01:12:34.196Z,10.87
2022-10-06T01:15:01.280Z,6.67
2022-10-06T01:17:33.444Z,5.07
2022-10-06T01:20:05.248Z,21.90
2022-10-06T01:22:34.963Z,6.90
2022-10-06T01:25:02.145Z,8.47
2022-10-06T01:27:30.742Z,12.20
2022-10-06T01:29:58.530Z,16.63
2022-10-06T01:32:27.547Z,6.00
2022-10-06T01:34:54.141Z,6.03
2022-10-06T01:37:20.713Z,4.50
2022-10-06T01:39:47.924Z,14.17
2022-10-06T01:42:14.683Z,8.90
2022-10-06T01:44:41.369Z,8.13
2022-10-06T01:47:08.515Z,14.57
2022-10-06T01:49:35.105Z,5.03
2022-10-06T01:52:02.064Z,5.67
2022-10-06T01:54:28.656Z,7.30
2022-10-06T01:56:56.486Z,7.20
2022-10-06T01:59:23.989Z,5.73
2022-10-06T02:01:50.740Z,5.63
2022-10-06T02:04:17.754Z,6.00
2022-10-06T02:06:44.475Z,9.17
2022-10-06T02:09:11.295Z,9.50
2022-10-06T02:11:37.968Z,7.63
2022-10-06T02:14:05.208Z,7.13
2022-10-06T02:16:31.746Z,10.73
2022-10-06T02:18:58.289Z,8.20
2022-10-06T02:21:24.899Z,7.30
2022-10-06T02:23:51.461Z,5.83
2022-10-06T02:26:18.523Z,22.73
2022-10-06T02:28:45.990Z,11.03
2022-10-06T02:31:14.328Z,17.27
2022-10-06T02:33:41.434Z,6.93
2022-10-06T02:36:10.304Z,8.97
2022-10-06T02:38:36.873Z,17.80
2022-10-06T02:41:03.654Z,8.70
2022-10-06T02:43:30.888Z,8.07
2022-10-06T02:45:59.509Z,9.73
2022-10-06T02:48:28.397Z,5.27
2022-10-06T02:50:56.434Z,20.40
2022-10-06T02:53:24.441Z,13.30
2022-10-06T02:55:51.719Z,9.97
2022-10-06T02:58:18.256Z,7.03
2022-10-06T03:00:44.763Z,16.83
2022-10-06T03:03:11.335Z,13.33
2022-10-06T03:05:38.637Z,10.20
2022-10-06T03:08:05.233Z,12.83
2022-10-06T03:10:31.896Z,11.83
2022-10-06T03:12:58.463Z,7.57
2022-10-06T03:15:25.073Z,8.50
2022-10-06T03:17:51.963Z,11.13
2022-10-06T03:20:18.543Z,28.03
2022-10-06T03:22:46.275Z,11.93
2022-10-06T03:25:12.849Z,16.30
2022-10-06T03:27:39.456Z,6.27
2022-10-06T03:30:07.546Z,13.27
2022-10-06T03:32:34.727Z,13.03
2022-10-06T03:35:01.292Z,16.10
2022-10-06T03:37:28.579Z,11.83
2022-10-06T03:39:55.795Z,7.93
2022-10-06T03:42:22.411Z,8.17
2022-10-06T03:44:48.950Z,6.40
2022-10-06T03:47:17.358Z,12.73
2022-10-06T03:49:44.320Z,9.03
2022-10-06T03:52:10.865Z,15.17
2022-10-06T03:54:37.393Z,12.37
2022-10-06T03:57:04.646Z,11.30
2022-10-06T03:59:33.451Z,12.73
2022-10-06T04:02:00.170Z,9.53
2022-10-06T04:04:27.912Z,5.90
2022-10-06T04:06:54.482Z,11.13
2022-10-06T04:09:21.094Z,5.10
2022-10-06T04:11:47.891Z,12.03
2022-10-06T04:14:16.053Z,10.00
2022-10-06T04:16:44.169Z,6.87
2022-10-06T04:19:12.845Z,5.93
2022-10-06T04:21:41.965Z,13.63
2022-10-06T04:24:09.963Z,6.47
2022-10-06T04:26:39.194Z,7.43
2022-10-06T04:29:06.407Z,12.47
2022-10-06T04:31:36.323Z,6.33
2022-10-06T04:34:04.052Z,6.37
2022-10-06T04:36:32.572Z,2.93
2022-10-06T04:39:02.200Z,4.80
2022-10-06T04:41:31.168Z,2.60
2022-10-06T04:43:58.184Z,4.17
2022-10-06T04:49:19.381Z,6.40
2022-10-06T04:51:47.954Z,15.50
2022-10-06T04:54:14.716Z,3.47
2022-10-06T04:56:41.336Z,5.40
2022-10-06T04:59:07.935Z,5.33
2022-10-06T05:01:36.054Z,3.77
2022-10-06T05:04:04.084Z,5.93
2022-10-06T05:06:33.098Z,1.90
2022-10-06T05:09:01.669Z,5.47
2022-10-06T05:11:28.788Z,5.40
2022-10-06T05:13:57.258Z,7.20
2022-10-06T05:16:26.136Z,2.93
2022-10-06T05:18:52.770Z,1.70
2022-10-06T05:21:21.641Z,3.80
2022-10-06T05:23:48.971Z,3.60
2022-10-06T05:26:17.949Z,2.30
2022-10-06T05:28:44.615Z,2.20
2022-10-06T05:31:13.218Z,3.17
2022-10-06T05:33:40.808Z,1.97
2022-10-06T05:36:10.057Z,2.90
2022-10-06T05:38:37.248Z,2.43
2022-10-06T05:41:06.225Z,5.13
2022-10-06T05:43:34.072Z,5.00
2022-10-06T05:46:02.439Z,13.70
2022-10-06T05:48:30.088Z,4.03
2022-10-06T05:51:00.978Z,7.40
2022-10-06T05:53:28.591Z,5.03
2022-10-06T05:56:03.969Z,2.60
2022-10-06T05:58:30.995Z,4.97
2022-10-06T06:01:06.540Z,4.40
2022-10-06T06:03:33.070Z,7.43
2022-10-06T06:05:59.676Z,4.30
2022-10-06T06:08:26.668Z,2.30
2022-10-06T06:10:53.578Z,4.00
2022-10-06T06:13:21.247Z,2.93
2022-10-06T06:16:00.040Z,9.90
2022-10-06T06:18:27.148Z,2.60
2022-10-06T06:20:57.155Z,6.47
2022-10-06T06:23:23.804Z,1.37
2022-10-06T06:26:01.979Z,8.47
2022-10-06T06:28:30.898Z,7.37
2022-10-06T06:31:02.635Z,6.97
2022-10-06T06:33:29.708Z,9.10
2022-10-06T06:35:56.672Z,2.40
2022-10-06T06:38:23.406Z,3.40
2022-10-06T06:40:50.343Z,7.50
2022-10-06T06:43:17.010Z,9.03
2022-10-06T06:45:44.295Z,2.80
2022-10-06T06:48:14.747Z,4.70
2022-10-06T06:50:41.481Z,6.57
2022-10-06T06:53:08.238Z,5.27
2022-10-06T06:55:35.806Z,3.93
2022-10-06T06:58:02.482Z,12.17
2022-10-06T07:00:33.796Z,10.47
2022-10-06T07:03:03.708Z,5.07
2022-10-06T07:05:30.227Z,7.47
2022-10-06T07:07:56.753Z,7.87
2022-10-06T07:10:27.014Z,5.17
2022-10-06T07:12:53.541Z,10.80
2022-10-06T07:15:38.196Z,5.70
2022-10-06T07:18:23.785Z,4.97
2022-10-06T07:21:08.585Z,2.60
2022-10-06T07:23:53.113Z,3.43
2022-10-06T07:26:19.666Z,11.23
2022-10-06T07:28:46.199Z,6.57
2022-10-06T07:31:12.770Z,10.33
2022-10-06T07:33:40.743Z,16.67
2022-10-06T07:36:07.419Z,7.73
2022-10-06T07:38:34.015Z,8.47
2022-10-06T07:41:18.891Z,13.43
2022-10-06T07:43:46.574Z,9.70
2022-10-06T07:46:13.892Z,5.40
2022-10-06T07:48:41.721Z,7.03
2022-10-06T07:51:13.525Z,13.20
2022-10-06T07:53:40.490Z,8.83
2022-10-06T07:56:07.941Z,6.93
2022-10-06T07:58:36.634Z,11.30
2022-10-06T08:01:05.862Z,8.57
2022-10-06T08:03:32.498Z,10.30
2022-10-06T08:06:01.477Z,3.07
2022-10-06T08:08:30.382Z,9.43
2022-10-06T08:11:01.661Z,6.30
2022-10-06T08:13:31.461Z,9.20
2022-10-06T08:16:03.912Z,13.10
2022-10-06T08:18:47.208Z,13.83
2022-10-06T08:21:16.931Z,8.00
2022-10-06T08:23:45.004Z,5.63
2022-10-06T08:26:13.050Z,9.43
2022-10-06T08:28:42.959Z,13.63
2022-10-06T08:31:10.899Z,7.87
2022-10-06T08:33:38.091Z,12.57
2022-10-06T08:36:07.917Z,5.93
2022-10-06T08:38:36.103Z,8.87
2022-10-06T08:41:03.240Z,8.37
2022-10-06T08:43:31.594Z,7.67
2022-10-06T08:46:01.557Z,7.63
2022-10-06T08:48:37.923Z,10.27
2022-10-06T08:51:18.917Z,7.60
2022-10-06T08:53:57.095Z,6.83
2022-10-06T08:56:27.571Z,18.47
2022-10-06T08:58:56.676Z,12.77
2022-10-06T09:01:26.353Z,14.87
2022-10-06T09:03:56.519Z,10.17
2022-10-06T09:06:41.129Z,7.93
2022-10-06T09:09:18.074Z,15.47
2022-10-06T09:11:54.652Z,11.03
2022-10-06T09:14:28.283Z,11.63
2022-10-06T09:17:00.006Z,10.27
2022-10-06T09:19:34.665Z,15.07
2022-10-06T09:22:03.935Z,13.43
2022-10-06T09:24:36.993Z,16.17
2022-10-06T09:27:16.026Z,19.27
2022-10-06T09:29:42.679Z,11.70
2022-10-06T09:32:10.252Z,15.20
2022-10-06T09:34:42.066Z,19.90
2022-10-06T09:37:12.095Z,18.27
2022-10-06T09:39:41.256Z,16.57
2022-10-06T09:42:14.642Z,22.93
2022-10-06T09:44:52.621Z,9.43
2022-10-06T09:47:44.082Z,22.13
2022-10-06T09:50:21.057Z,27.40
2022-10-06T09:53:21.219Z,14.97
2022-10-06T09:55:51.563Z,21.47
2022-10-06T09:58:25.201Z,16.33
2022-10-06T10:00:54.975Z,15.10
2022-10-06T10:03:22.821Z,13.20
2022-10-06T10:05:51.728Z,12.40
2022-10-06T10:08:21.769Z,12.80
2022-10-06T10:10:49.657Z,6.03
2022-10-06T10:13:21.531Z,8.33
2022-10-06T10:15:55.295Z,14.33
2022-10-06T10:18:26.054Z,17.73
2022-10-06T10:20:56.825Z,13.97
2022-10-06T10:23:31.385Z,11.50
2022-10-06T10:26:17.379Z,10.60
2022-10-06T10:29:02.528Z,10.33
2022-10-06T10:31:40.648Z,16.93
2022-10-06T10:34:23.937Z,15.13
2022-10-06T10:36:55.579Z,15.83
2022-10-06T10:39:37.198Z,11.17
2022-10-06T10:42:17.246Z,12.00
2022-10-06T10:44:51.797Z,6.73
2022-10-06T10:47:25.158Z,10.47
2022-10-06T10:49:59.009Z,13.77
2022-10-06T10:52:29.835Z,4.87
2022-10-06T10:55:06.127Z,11.43
2022-10-06T10:57:39.618Z,7.50
2022-10-06T11:00:14.423Z,14.40
2022-10-06T11:02:41.210Z,15.03
2022-10-06T11:05:16.443Z,11.93
2022-10-06T11:07:48.707Z,16.27
2022-10-06T11:10:19.504Z,13.87
2022-10-06T11:13:01.384Z,9.40
2022-10-06T11:15:43.891Z,12.27
2022-10-06T11:18:21.714Z,11.87
2022-10-06T11:20:53.022Z,14.70
2022-10-06T11:23:39.927Z,11.27
2022-10-06T11:26:14.841Z,17.03
2022-10-06T11:28:46.788Z,5.23
2022-10-06T11:31:25.271Z,6.97
2022-10-06T11:33:53.855Z,10.17
2022-10-06T11:36:33.912Z,14.63
2022-10-06T11:39:06.058Z,10.90
2022-10-06T11:41:38.432Z,13.70
2022-10-06T11:44:15.225Z,8.20
2022-10-06T11:46:48.465Z,13.90
2022-10-06T11:49:51.786Z,12.83
2022-10-06T11:52:55.164Z,14.73
2022-10-06T11:55:25.461Z,14.50
2022-10-06T11:58:42.062Z,10.50
2022-10-06T12:01:03.107Z,16.70
2022-10-06T12:04:13.025Z,10.40
2022-10-06T12:06:57.057Z,20.97
2022-10-06T12:09:45.772Z,6.73
2022-10-06T12:12:47.751Z,7.13
2022-10-06T12:18:48.963Z,25.07
2022-10-06T12:21:34.355Z,23.10
2022-10-06T12:24:17.514Z,16.53
2022-10-06T12:26:54.249Z,10.10
2022-10-06T12:29:37.282Z,6.77
2022-10-06T12:32:15.866Z,16.77
2022-10-06T12:35:13.719Z,10.27
2022-10-06T12:37:43.283Z,13.47
2022-10-06T12:40:48.557Z,14.60
2022-10-06T12:43:49.277Z,14.30
2022-10-06T12:46:23.717Z,11.40
2022-10-06T12:49:01.766Z,16.17
2022-10-06T12:54:06.975Z,12.50
2022-10-06T12:56:35.694Z,17.10
2022-10-06T12:59:19.617Z,19.15
2022-10-06T13:01:47.201Z,24.97
2022-10-06T13:04:33.864Z,11.70
2022-10-06T13:07:08.394Z,8.17
2022-10-06T13:09:35.491Z,14.13
2022-10-06T13:12:24.147Z,7.18
2022-10-06T13:15:09.113Z,16.27
2022-10-06T13:17:40.078Z,17.10
2022-10-06T13:20:16.382Z,12.07
2022-10-06T13:22:43.958Z,14.20
2022-10-06T13:25:13.094Z,15.93
2022-10-06T13:27:40.572Z,15.48
2022-10-06T13:30:19.759Z,9.27
2022-10-06T13:32:47.273Z,12.43
2022-10-06T13:35:15.276Z,8.07
2022-10-06T13:37:42.016Z,16.20
2022-10-06T13:40:22.079Z,12.98
2022-10-06T13:43:01.723Z,8.35
2022-10-06T13:45:28.762Z,6.80
2022-10-06T13:48:06.976Z,15.70
2022-10-06T13:50:35.492Z,9.70
2022-10-06T13:53:02.597Z,10.48
2022-10-06T13:55:31.169Z,18.27
2022-10-06T13:58:09.665Z,13.00
2022-10-06T14:00:48.394Z,21.07
2022-10-06T14:03:22.456Z,15.40
2022-10-06T14:05:50.529Z,15.63
2022-10-06T14:08:23.722Z,11.60
2022-10-06T14:10:53.844Z,15.43
2022-10-06T14:13:23.511Z,10.37
2022-10-06T14:15:52.752Z,18.77
2022-10-06T14:18:22.860Z,21.27
2022-10-06T14:20:50.594Z,20.80
2022-10-06T14:23:40.693Z,17.70
2022-10-06T14:26:08.682Z,16.63
2022-10-06T14:28:35.418Z,8.67
2022-10-06T14:31:02.248Z,10.77
2022-10-06T14:33:29.442Z,11.17
2022-10-06T14:35:56.317Z,11.50
2022-10-06T14:38:23.876Z,10.17
2022-10-06T14:40:50.474Z,10.97
2022-10-06T14:43:18.564Z,9.40
2022-10-06T14:45:45.184Z,14.10
2022-10-06T14:48:14.488Z,8.40
2022-10-06T14:50:42.940Z,6.03
2022-10-06T14:53:13.021Z,13.70
2022-10-06T14:55:39.541Z,17.20
2022-10-06T14:58:06.130Z,9.37
2022-10-06T15:00:33.655Z,8.53
2022-10-06T15:03:00.299Z,8.70
2022-10-06T15:05:27.075Z,16.73
2022-10-06T15:08:11.556Z,19.73
2022-10-06T15:10:38.676Z,15.30
2022-10-06T15:13:07.682Z,23.40
2022-10-06T15:15:35.282Z,9.33
2022-10-06T15:18:02.168Z,15.90
2022-10-06T15:20:29.052Z,12.80
2022-10-06T15:22:55.869Z,13.47
2022-10-06T15:25:40.466Z,10.00
2022-10-06T15:28:27.571Z,20.70
2022-10-06T15:30:56.129Z,17.47
2022-10-06T15:33:22.956Z,9.63
2022-10-06T15:36:13.693Z,8.23
2022-10-06T15:38:40.395Z,13.77
2022-10-06T15:41:06.984Z,9.43
2022-10-06T15:43:48.109Z,12.13
2022-10-06T15:46:15.489Z,5.73
2022-10-06T15:48:43.636Z,9.73
2022-10-06T15:51:10.394Z,24.70
2022-10-06T15:53:36.958Z,11.17
2022-10-06T15:56:04.091Z,20.50
2022-10-06T15:58:30.808Z,6.07
2022-10-06T16:00:57.445Z,11.93
2022-10-06T16:03:40.091Z,12.70
2022-10-06T16:06:08.664Z,9.70
2022-10-06T16:08:35.536Z,12.93
2022-10-06T16:11:02.347Z,10.87
2022-10-06T16:13:29.233Z,13.40
2022-10-06T16:15:56.824Z,18.63
2022-10-06T16:18:24.528Z,17.20
2022-10-06T16:20:55.138Z,15.70
2022-10-06T16:23:22.258Z,13.60
2022-10-06T16:25:49.693Z,12.13
2022-10-06T16:28:16.455Z,14.50
2022-10-06T16:30:43.152Z,21.70
2022-10-06T16:33:09.865Z,11.17
2022-10-06T16:35:37.504Z,18.97
2022-10-06T16:38:05.338Z,12.07
2022-10-06T16:40:31.971Z,14.17
2022-10-06T16:42:58.596Z,13.60
2022-10-06T16:45:27.883Z,15.17
2022-10-06T16:47:54.503Z,11.07
2022-10-06T16:50:21.166Z,13.90
2022-10-06T16:52:48.728Z,14.97
2022-10-06T16:55:15.493Z,17.57
2022-10-06T16:57:42.391Z,12.73
2022-10-06T17:00:13.752Z,19.27
2022-10-06T17:02:41.777Z,14.50
2022-10-06T17:05:09.095Z,13.33
2022-10-06T17:07:35.953Z,30.57
2022-10-06T17:10:20.435Z,25.13
2022-10-06T17:12:48.853Z,22.70
2022-10-06T17:15:15.871Z,20.33
2022-10-06T17:17:42.759Z,26.87
2022-10-06T17:20:09.932Z,17.53
2022-10-06T17:22:40.040Z,23.27
2022-10-06T17:25:08.787Z,16.77
2022-10-06T17:27:41.026Z,20.40
2022-10-06T17:30:09.911Z,15.63
2022-10-06T17:32:37.442Z,19.90
2022-10-06T17:35:05.067Z,20.70
2022-10-06T17:37:31.871Z,21.20
2022-10-06T17:39:58.754Z,15.83
2022-10-06T17:42:29.886Z,22.27
2022-10-06T17:44:58.185Z,19.93
2022-10-06T17:47:25.097Z,17.20
2022-10-06T17:49:51.859Z,22.57
2022-10-06T17:52:23.346Z,19.47
2022-10-06T17:54:51.607Z,19.50
2022-10-06T17:57:18.829Z,28.67
2022-10-06T17:59:46.068Z,19.13
2022-10-06T18:02:13.447Z,19.47
2022-10-06T18:04:41.511Z,18.17
2022-10-06T18:07:12.427Z,20.77
2022-10-06T18:10:01.329Z,18.83
2022-10-06T18:12:37.041Z,14.80
2022-10-06T18:15:10.351Z,17.10
2022-10-06T18:17:36.933Z,21.40
2022-10-06T18:20:04.662Z,35.57
2022-10-06T18:22:31.301Z,30.67
2022-10-06T18:24:59.331Z,23.47
2022-10-06T18:27:26.592Z,32.97
2022-10-06T18:29:53.475Z,18.93
2022-10-06T18:33:59.402Z,25.90
2022-10-06T18:37:56.616Z,18.50
2022-10-06T18:40:23.567Z,23.67
2022-10-06T18:42:50.239Z,27.57
2022-10-06T18:45:39.306Z,25.47
2022-10-06T18:48:26.800Z,23.53
2022-10-06T18:51:00.283Z,29.83
2022-10-06T18:53:27.473Z,20.67
2022-10-06T18:55:54.180Z,25.27
2022-10-06T18:58:21.193Z,24.67
2022-10-06T19:00:48.191Z,18.73
2022-10-06T19:03:15.598Z,19.83
2022-10-06T19:05:51.883Z,25.77
2022-10-06T19:08:19.303Z,16.17
2022-10-06T19:11:06.575Z,24.97
2022-10-06T19:13:33.249Z,43.07
2022-10-06T19:16:01.183Z,22.03
2022-10-06T19:18:35.789Z,29.73
2022-10-06T19:21:09.514Z,25.70
2022-10-06T19:23:38.416Z,23.17
2022-10-06T19:26:06.649Z,25.90
2022-10-06T19:28:33.642Z,37.90
2022-10-06T19:31:03.285Z,30.63
2022-10-06T19:33:30.404Z,23.37
2022-10-06T19:35:59.681Z,33.47
2022-10-06T19:38:27.674Z,30.30
2022-10-06T19:41:14.515Z,34.97
2022-10-06T19:43:41.072Z,34.00
2022-10-06T19:46:07.782Z,33.43
2022-10-06T19:48:36.681Z,28.83
2022-10-06T19:51:15.697Z,34.10
2022-10-06T19:53:49.046Z,29.60
2022-10-06T19:56:16.627Z,28.63
2022-10-06T19:58:43.295Z,26.83
2022-10-06T20:01:10.191Z,34.57
2022-10-06T20:03:39.116Z,37.83
2022-10-06T20:06:07.696Z,31.30
2022-10-06T20:08:35.493Z,36.47
2022-10-06T20:11:04.253Z,31.33
2022-10-06T20:13:33.535Z,28.13
2022-10-06T20:16:04.994Z,38.10
2022-10-06T20:18:36.041Z,36.40
2022-10-06T20:21:02.886Z,26.27
2022-10-06T20:23:29.524Z,32.47
2022-10-06T20:26:10.976Z,31.93
2022-10-06T20:28:37.931Z,27.07
2022-10-06T20:31:20.195Z,29.73
2022-10-06T20:33:49.553Z,39.90
2022-10-06T20:36:16.966Z,36.57
2022-10-06T20:39:02.262Z,28.40
2022-10-06T20:41:30.378Z,28.33
2022-10-06T20:43:57.732Z,26.40
2022-10-06T20:46:25.015Z,32.20
2022-10-06T20:48:51.789Z,34.17
2022-10-06T20:51:18.492Z,41.33
2022-10-06T20:53:45.430Z,22.93
2022-10-06T20:56:13.136Z,33.30
2022-10-06T20:58:40.676Z,31.00
2022-10-06T21:01:09.729Z,31.40
2022-10-06T21:03:42.776Z,32.87
2022-10-06T21:06:09.816Z,29.53
2022-10-06T21:08:37.154Z,28.37
2022-10-06T21:11:03.698Z,40.53
2022-10-06T21:13:31.622Z,25.97
2022-10-06T21:15:59.591Z,37.97
2022-10-06T21:18:27.493Z,38.27
2022-10-06T21:21:00.119Z,24.60
2022-10-06T21:23:27.418Z,24.77
2022-10-06T21:25:54.236Z,28.43
2022-10-06T21:28:22.058Z,37.83
2022-10-06T21:30:48.875Z,28.47
2022-10-06T21:33:16.116Z,37.80
2022-10-06T21:35:42.686Z,25.50
2022-10-06T21:38:11.267Z,31.37
2022-10-06T21:40:38.156Z,34.20
2022-10-06T21:43:05.118Z,31.63
2022-10-06T21:45:33.202Z,25.27
2022-10-06T21:47:59.872Z,33.57
2022-10-06T21:50:27.112Z,31.40
2022-10-06T21:52:53.693Z,21.00
2022-10-06T21:55:20.253Z,32.80
2022-10-06T21:57:46.994Z,27.33
2022-10-06T22:00:14.413Z,23.17
2022-10-06T22:02:41.131Z,20.57
2022-10-06T22:05:08.230Z,28.57
2022-10-06T22:07:35.870Z,24.10
2022-10-06T22:10:02.933Z,30.37
2022-10-06T22:12:29.687Z,25.73
2022-10-06T22:14:58.384Z,26.93
2022-10-06T22:17:25.415Z,30.80
2022-10-06T22:19:52.101Z,24.37
2022-10-06T22:22:18.892Z,37.90
2022-10-06T22:24:46.217Z,19.57
2022-10-06T22:27:12.904Z,23.33
2022-10-06T22:29:39.455Z,30.90
2022-10-06T22:32:06.068Z,30.67
2022-10-06T22:34:32.623Z,24.70
2022-10-06T22:36:59.857Z,24.77
2022-10-06T22:39:26.453Z,24.00
2022-10-06T22:41:53.644Z,21.03
2022-10-06T22:44:20.199Z,24.70
2022-10-06T22:46:46.835Z,22.40
2022-10-06T22:49:13.541Z,20.43
2022-10-06T22:51:40.090Z,26.87
2022-10-06T22:54:06.692Z,29.63
2022-10-06T22:56:33.776Z,25.23
2022-10-06T22:59:01.185Z,22.27
2022-10-06T23:01:28.792Z,26.23
2022-10-06T23:03:55.864Z,17.93
2022-10-06T23:06:23.789Z,25.53
2022-10-06T23:08:50.376Z,20.60
2022-10-06T23:11:18.848Z,27.30
2022-10-06T23:13:47.579Z,25.20
2022-10-06T23:16:16.752Z,18.90
2022-10-06T23:18:44.773Z,20.97
2022-10-06T23:21:18.104Z,20.30
2022-10-06T23:23:44.936Z,22.60
2022-10-06T23:26:13.495Z,32.47
2022-10-06T23:28:40.545Z,25.43
2022-10-06T23:31:51.423Z,26.20
2022-10-06T23:34:18.398Z,21.57
2022-10-06T23:36:45.071Z,22.90
2022-10-06T23:39:12.128Z,21.47
2022-10-06T23:41:38.767Z,28.77
2022-10-06T23:44:05.420Z,19.27
2022-10-06T23:46:32.956Z,23.17
2022-10-06T23:48:59.736Z,17.17
2022-10-06T23:51:26.521Z,29.63
2022-10-06T23:53:53.107Z,22.80
2022-10-06T23:56:21.021Z,26.17
2022-10-06T23:58:47.697Z,15.13
